createdAt,value
2023-11-28T00:00:27.288Z,71.97
2023-11-28T00:02:50.311Z,71.99
2023-11-28T00:04:53.129Z,72.07
2023-11-28T00:06:56.034Z,72.16
2023-11-28T00:08:58.777Z,72.18
2023-11-28T00:11:01.814Z,72.43
2023-11-28T00:13:04.541Z,72.65
2023-11-28T00:15:07.995Z,72.29
2023-11-28T00:17:10.634Z,72.35
2023-11-28T00:19:13.413Z,72.43
2023-11-28T00:21:16.214Z,72.73
2023-11-28T00:23:19.174Z,72.85
2023-11-28T00:25:22.041Z,72.92
2023-11-28T00:27:24.725Z,72.73
2023-11-28T00:29:27.541Z,72.58
2023-11-28T00:31:30.881Z,72.68
2023-11-28T00:33:33.931Z,72.37
2023-11-28T00:35:36.831Z,72.47
2023-11-28T00:37:40.521Z,72.66
2023-11-28T00:39:43.584Z,72.74
2023-11-28T00:41:46.633Z,72.85
2023-11-28T00:43:49.382Z,72.89
2023-11-28T00:45:52.196Z,72.91
2023-11-28T00:47:55.853Z,72.93
2023-11-28T00:49:58.778Z,72.88
2023-11-28T00:52:01.643Z,72.95
2023-11-28T00:54:04.302Z,72.96
2023-11-28T00:56:07.904Z,72.89
2023-11-28T00:58:10.788Z,72.86
2023-11-28T01:00:14.505Z,72.73
2023-11-28T01:02:17.826Z,72.65
2023-11-28T01:04:22.007Z,72.57
2023-11-28T01:06:25.177Z,72.57
2023-11-28T01:08:28.617Z,72.65
2023-11-28T01:10:32.154Z,72.62
2023-11-28T01:12:34.797Z,72.57
2023-11-28T01:14:38.485Z,72.59
2023-11-28T01:16:41.251Z,72.70
2023-11-28T01:18:45.689Z,72.67
2023-11-28T01:20:48.387Z,72.59
2023-11-28T01:22:51.841Z,72.71
2023-11-28T01:24:54.945Z,72.58
2023-11-28T01:26:59.809Z,72.63
2023-11-28T01:29:04.920Z,72.66
2023-11-28T01:31:07.970Z,72.52
2023-11-28T01:33:10.883Z,72.52
2023-11-28T01:35:13.876Z,72.38
2023-11-28T01:37:19.617Z,72.35
2023-11-28T01:39:22.519Z,72.26
2023-11-28T01:41:25.343Z,72.37
2023-11-28T01:43:30.129Z,72.33
2023-11-28T01:45:33.238Z,72.34
2023-11-28T01:47:36.834Z,72.52
2023-11-28T01:49:40.501Z,72.49
2023-11-28T01:51:43.091Z,72.41
2023-11-28T01:53:46.499Z,72.47
2023-11-28T01:55:53.500Z,72.55
2023-11-28T01:57:58.324Z,72.58
2023-11-28T02:00:01.952Z,72.53
2023-11-28T02:02:07.657Z,72.25
2023-11-28T02:04:10.681Z,72.15
2023-11-28T02:06:14.182Z,71.96
2023-11-28T02:08:16.945Z,72.08
2023-11-28T02:10:20.710Z,72.12
2023-11-28T02:12:23.365Z,72.09
2023-11-28T02:14:26.551Z,72.03
2023-11-28T02:16:29.895Z,72.21
2023-11-28T02:18:32.729Z,72.41
2023-11-28T02:20:36.344Z,72.83
2023-11-28T02:22:39.062Z,72.81
2023-11-28T02:24:44.898Z,72.72
2023-11-28T02:26:47.624Z,72.57
2023-11-28T02:28:50.719Z,72.74
2023-11-28T02:30:54.988Z,72.53
2023-11-28T02:32:57.798Z,72.57
2023-11-28T02:35:11.512Z,72.77
2023-11-28T02:37:20.173Z,72.75
2023-11-28T02:39:22.782Z,72.90
2023-11-28T02:41:25.447Z,72.87
2023-11-28T02:43:28.352Z,73.01
2023-11-28T02:45:31.246Z,73.03
2023-11-28T02:47:35.203Z,72.95
2023-11-28T02:49:40.648Z,73.08
2023-11-28T02:51:45.090Z,72.88
2023-11-28T02:53:48.160Z,72.63
2023-11-28T02:55:50.915Z,72.57
2023-11-28T02:57:53.599Z,72.70
2023-11-28T02:59:58.864Z,72.83
2023-11-28T03:02:01.547Z,72.91
2023-11-28T03:04:04.366Z,73.02
2023-11-28T03:06:07.879Z,72.87
2023-11-28T03:08:10.565Z,72.99
2023-11-28T03:10:13.253Z,72.93
2023-11-28T03:12:15.940Z,72.96
2023-11-28T03:14:18.589Z,72.73
2023-11-28T03:16:21.346Z,72.96
2023-11-28T03:18:24.533Z,72.78
2023-11-28T03:20:27.246Z,72.72
2023-11-28T03:22:30.450Z,72.70
2023-11-28T03:24:33.796Z,72.63
2023-11-28T03:26:36.388Z,72.60
2023-11-28T03:28:40.555Z,72.75
2023-11-28T03:30:44.521Z,72.66
2023-11-28T03:32:47.214Z,72.56
2023-11-28T03:34:50.417Z,72.53
2023-11-28T03:36:53.539Z,72.34
2023-11-28T03:38:56.293Z,72.28
2023-11-28T03:40:58.905Z,72.26
2023-11-28T03:43:01.605Z,72.35
2023-11-28T03:45:05.696Z,72.37
2023-11-28T03:47:08.453Z,72.60
2023-11-28T03:49:11.017Z,72.77
2023-11-28T03:51:13.590Z,72.78
2023-11-28T03:53:16.348Z,72.81
2023-11-28T03:55:18.984Z,72.82
2023-11-28T03:57:21.863Z,72.75
2023-11-28T03:59:24.540Z,72.73
2023-11-28T04:01:27.746Z,72.52
2023-11-28T04:03:30.522Z,72.60
2023-11-28T04:05:33.324Z,72.33
2023-11-28T04:07:40.830Z,72.14
2023-11-28T04:09:44.320Z,72.18
2023-11-28T04:11:47.208Z,72.21
2023-11-28T04:13:51.235Z,72.30
2023-11-28T04:15:54.237Z,72.53
2023-11-28T04:17:57.548Z,72.68
2023-11-28T04:20:00.858Z,72.58
2023-11-28T04:22:04.044Z,72.75
2023-11-28T04:24:07.122Z,72.69
2023-11-28T04:26:10.491Z,72.75
2023-11-28T04:28:14.239Z,72.88
2023-11-28T04:30:18.052Z,72.63
2023-11-28T04:32:21.241Z,72.51
2023-11-28T04:34:24.126Z,72.29
2023-11-28T04:36:27.136Z,72.36
2023-11-28T04:38:30.927Z,72.46
2023-11-28T04:40:34.244Z,72.70
2023-11-28T04:42:40.407Z,72.89
2023-11-28T04:44:43.134Z,72.78
2023-11-28T04:46:45.788Z,72.88
2023-11-28T04:48:49.311Z,72.62
2023-11-28T04:50:52.192Z,72.34
2023-11-28T04:52:55.835Z,72.27
2023-11-28T04:54:58.779Z,72.07
2023-11-28T04:57:01.739Z,72.10
2023-11-28T04:59:04.968Z,71.99
2023-11-28T05:01:08.119Z,72.06
2023-11-28T05:03:11.781Z,72.40
2023-11-28T05:05:15.663Z,72.36
2023-11-28T05:07:19.296Z,72.23
2023-11-28T05:09:22.999Z,72.33
2023-11-28T05:11:26.097Z,72.37
2023-11-28T05:13:37.901Z,72.49
2023-11-28T05:15:41.689Z,72.51
2023-11-28T05:17:44.473Z,72.32
2023-11-28T05:19:47.181Z,72.22
2023-11-28T05:21:50.362Z,72.29
2023-11-28T05:23:53.071Z,72.21
2023-11-28T05:25:56.832Z,72.34
2023-11-28T05:27:59.503Z,72.42
2023-11-28T05:30:02.750Z,72.63
2023-11-28T05:32:07.002Z,72.49
2023-11-28T05:34:11.382Z,72.55
2023-11-28T05:36:14.009Z,72.46
2023-11-28T05:38:17.254Z,72.38
2023-11-28T05:40:20.240Z,72.37
2023-11-28T05:42:23.810Z,72.26
2023-11-28T05:44:26.607Z,72.17
2023-11-28T05:46:29.763Z,72.06
2023-11-28T05:48:32.983Z,72.11
2023-11-28T05:50:35.659Z,72.01
2023-11-28T05:52:39.072Z,71.94
2023-11-28T05:54:42.004Z,71.88
2023-11-28T05:56:44.643Z,71.96
2023-11-28T05:58:47.693Z,72.00
2023-11-28T06:00:50.920Z,72.16
2023-11-28T06:02:56.163Z,72.09
2023-11-28T06:04:59.970Z,72.03
2023-11-28T06:07:03.639Z,72.04
2023-11-28T06:09:07.553Z,71.93
2023-11-28T06:11:10.963Z,72.15
2023-11-28T06:13:14.827Z,72.17
2023-11-28T06:15:18.479Z,72.23
2023-11-28T06:17:21.509Z,72.28
2023-11-28T06:19:24.261Z,72.57
2023-11-28T06:21:28.700Z,72.37
2023-11-28T06:23:31.275Z,72.32
2023-11-28T06:25:33.915Z,72.56
2023-11-28T06:27:36.821Z,72.59
2023-11-28T06:29:39.410Z,72.64
2023-11-28T06:31:42.566Z,72.50
2023-11-28T06:33:45.699Z,72.31
2023-11-28T06:35:49.421Z,72.37
2023-11-28T06:37:52.495Z,72.22
2023-11-28T06:39:56.324Z,71.99
2023-11-28T06:42:02.077Z,71.90
2023-11-28T06:44:05.523Z,72.03
2023-11-28T06:46:08.343Z,71.99
2023-11-28T06:48:11.166Z,71.82
2023-11-28T06:50:14.055Z,71.78
2023-11-28T06:52:17.893Z,72.07
2023-11-28T06:54:20.638Z,71.84
2023-11-28T06:56:23.403Z,71.89
2023-11-28T06:58:26.387Z,72.04
2023-11-28T07:00:29.046Z,71.94
2023-11-28T07:02:33.111Z,71.95
2023-11-28T07:04:38.053Z,71.90
2023-11-28T07:06:41.960Z,71.93
2023-11-28T07:08:44.666Z,71.89
2023-11-28T07:10:47.468Z,71.90
2023-11-28T07:12:50.949Z,71.74
2023-11-28T07:14:53.693Z,71.93
2023-11-28T07:16:56.420Z,71.81
2023-11-28T07:19:00.058Z,71.98
2023-11-28T07:21:02.788Z,72.03
2023-11-28T07:23:06.004Z,72.09
2023-11-28T07:25:10.255Z,71.71
2023-11-28T07:27:12.886Z,71.64
2023-11-28T07:29:17.016Z,71.64
2023-11-28T07:31:20.203Z,71.71
2023-11-28T07:33:24.286Z,71.99
2023-11-28T07:35:27.064Z,71.87
2023-11-28T07:37:30.024Z,71.97
2023-11-28T07:39:33.543Z,71.72
2023-11-28T07:41:36.245Z,71.67
2023-11-28T07:43:39.495Z,71.78
2023-11-28T07:45:42.422Z,71.78
2023-11-28T07:47:45.538Z,71.87
2023-11-28T07:49:48.934Z,71.86
2023-11-28T07:51:51.667Z,71.75
2023-11-28T07:53:54.308Z,71.70
2023-11-28T07:55:57.028Z,71.48
2023-11-28T07:57:59.773Z,71.42
2023-11-28T08:00:07.188Z,71.36
2023-11-28T08:02:15.684Z,71.21
2023-11-28T08:04:18.543Z,71.17
2023-11-28T08:06:21.282Z,70.90
2023-11-28T08:08:24.401Z,71.09
2023-11-28T08:10:27.275Z,70.93
2023-11-28T08:12:30.036Z,70.81
2023-11-28T08:14:33.133Z,71.12
2023-11-28T08:16:36.062Z,71.05
2023-11-28T08:18:41.264Z,71.08
2023-11-28T08:20:46.161Z,71.07
2023-11-28T08:22:50.431Z,70.97
2023-11-28T08:24:54.716Z,71.11
2023-11-28T08:26:58.610Z,71.33
2023-11-28T08:29:01.474Z,71.28
2023-11-28T08:31:04.467Z,71.22
2023-11-28T08:33:07.266Z,71.25
2023-11-28T08:35:10.279Z,71.00
2023-11-28T08:37:16.422Z,71.09
2023-11-28T08:39:19.815Z,71.04
2023-11-28T08:41:23.185Z,70.84
2023-11-28T08:43:25.895Z,70.80
2023-11-28T08:45:28.605Z,70.73
2023-11-28T08:47:31.408Z,70.61
2023-11-28T08:49:34.566Z,70.30
2023-11-28T08:51:37.790Z,70.29
2023-11-28T08:53:40.571Z,70.31
2023-11-28T08:55:44.111Z,70.15
2023-11-28T08:57:47.206Z,69.99
2023-11-28T08:59:49.995Z,69.94
2023-11-28T09:01:52.944Z,69.94
2023-11-28T09:03:56.201Z,69.94
2023-11-28T09:05:59.050Z,69.81
2023-11-28T09:08:04.692Z,69.66
2023-11-28T09:10:08.367Z,69.85
2023-11-28T09:12:11.095Z,69.87
2023-11-28T09:14:15.555Z,70.00
2023-11-28T09:16:18.508Z,69.87
2023-11-28T09:18:21.213Z,69.76
2023-11-28T09:20:24.211Z,69.57
2023-11-28T09:22:27.882Z,69.55
2023-11-28T09:24:32.939Z,69.57
2023-11-28T09:26:36.205Z,69.59
2023-11-28T09:28:39.276Z,69.44
2023-11-28T09:30:42.036Z,69.40
2023-11-28T09:32:45.021Z,69.28
2023-11-28T09:34:48.438Z,69.38
2023-11-28T09:36:51.249Z,69.22
2023-11-28T09:38:55.170Z,69.17
2023-11-28T09:40:57.934Z,69.45
2023-11-28T09:43:00.931Z,69.32
2023-11-28T09:45:06.443Z,69.16
2023-11-28T09:47:11.790Z,69.21
2023-11-28T09:49:18.080Z,69.40
2023-11-28T09:51:22.020Z,69.41
2023-11-28T09:53:29.947Z,69.49
2023-11-28T09:55:33.279Z,69.37
2023-11-28T09:57:42.396Z,69.26
2023-11-28T09:59:48.114Z,69.29
2023-11-28T10:01:53.146Z,69.18
2023-11-28T10:03:56.641Z,69.18
2023-11-28T10:06:00.868Z,69.15
2023-11-28T10:08:08.950Z,69.25
2023-11-28T10:10:14.001Z,69.43
2023-11-28T10:12:17.449Z,69.26
2023-11-28T10:14:21.626Z,69.14
2023-11-28T10:17:03.912Z,69.30
2023-11-28T10:19:07.475Z,69.33
2023-11-28T10:21:11.061Z,69.09
2023-11-28T10:23:17.606Z,69.17
2023-11-28T10:25:24.285Z,69.39
2023-11-28T10:27:29.947Z,69.37
2023-11-28T10:29:37.687Z,69.15
2023-11-28T10:31:41.528Z,69.04
2023-11-28T10:33:45.037Z,68.68
2023-11-28T10:35:47.652Z,68.88
2023-11-28T10:37:50.584Z,68.69
2023-11-28T10:39:56.279Z,68.93
2023-11-28T10:41:59.345Z,68.85
2023-11-28T10:44:02.547Z,68.90
2023-11-28T10:46:06.452Z,68.90
2023-11-28T10:48:11.146Z,68.82
2023-11-28T10:50:15.699Z,68.94
2023-11-28T10:52:20.844Z,68.58
2023-11-28T10:54:26.645Z,68.48
2023-11-28T10:56:36.388Z,68.59
2023-11-28T10:58:41.025Z,68.30
2023-11-28T11:00:46.796Z,68.38
2023-11-28T11:02:50.176Z,68.38
2023-11-28T11:04:53.193Z,68.34
2023-11-28T11:06:57.099Z,68.15
2023-11-28T11:09:00.167Z,68.12
2023-11-28T11:11:03.713Z,67.72
2023-11-28T11:13:23.271Z,67.47
2023-11-28T11:15:32.955Z,67.57
2023-11-28T11:17:58.858Z,67.27
2023-11-28T11:20:06.144Z,67.37
2023-11-28T11:22:11.974Z,67.49
2023-11-28T11:24:20.738Z,67.24
2023-11-28T11:26:54.002Z,67.04
2023-11-28T11:28:58.342Z,66.79
2023-11-28T11:31:16.655Z,67.00
2023-11-28T11:33:25.425Z,67.01
2023-11-28T11:35:31.580Z,66.59
2023-11-28T11:37:37.510Z,66.51
2023-11-28T11:39:51.438Z,66.58
2023-11-28T11:41:58.554Z,66.50
2023-11-28T11:44:02.165Z,66.39
2023-11-28T11:46:14.039Z,66.40
2023-11-28T11:48:27.017Z,66.47
2023-11-28T11:50:38.026Z,66.18
2023-11-28T11:52:41.996Z,65.80
2023-11-28T11:54:46.419Z,65.82
2023-11-28T11:56:49.129Z,65.35
2023-11-28T11:58:52.125Z,65.52
2023-11-28T12:00:54.909Z,65.89
2023-11-28T12:03:00.357Z,65.91
2023-11-28T12:05:06.654Z,65.88
2023-11-28T12:07:14.104Z,65.92
2023-11-28T12:09:16.721Z,65.45
2023-11-28T12:11:19.683Z,65.39
2023-11-28T12:13:23.864Z,65.48
2023-11-28T12:15:27.109Z,65.50
2023-11-28T12:17:29.902Z,65.56
2023-11-28T12:19:33.891Z,65.46
2023-11-28T12:23:39.837Z,65.50
2023-11-28T12:25:43.946Z,65.26
2023-11-28T12:27:47.621Z,65.06
2023-11-28T12:29:51.086Z,65.34
2023-11-28T12:31:56.836Z,65.38
2023-11-28T12:33:59.688Z,65.35
2023-11-28T12:36:02.686Z,65.38
2023-11-28T12:38:11.375Z,65.37
2023-11-28T12:40:14.130Z,65.34
2023-11-28T12:42:18.409Z,65.27
2023-11-28T12:44:22.843Z,65.42
2023-11-28T12:46:25.672Z,65.72
2023-11-28T12:48:29.074Z,65.38
2023-11-28T12:50:32.034Z,65.49
2023-11-28T12:52:39.605Z,65.43
2023-11-28T12:54:43.025Z,65.32
2023-11-28T12:56:51.525Z,65.19
2023-11-28T12:58:54.325Z,65.13
2023-11-28T13:00:57.017Z,65.03
2023-11-28T13:03:00.454Z,65.10
2023-11-28T13:05:03.671Z,65.30
2023-11-28T13:07:14.242Z,65.17
2023-11-28T13:09:26.144Z,64.94
2023-11-28T13:11:30.960Z,64.68
2023-11-28T13:13:35.602Z,64.94
2023-11-28T13:15:38.405Z,65.03
2023-11-28T13:17:41.155Z,64.88
2023-11-28T13:19:43.809Z,64.69
2023-11-28T13:21:46.683Z,64.90
2023-11-28T13:23:50.943Z,64.81
2023-11-28T13:25:53.734Z,64.47
2023-11-28T13:27:58.288Z,64.69
2023-11-28T13:30:02.466Z,64.67
2023-11-28T13:32:06.521Z,64.56
2023-11-28T13:34:13.515Z,64.40
2023-11-28T13:36:17.406Z,64.60
2023-11-28T13:38:22.853Z,64.34
2023-11-28T13:40:26.237Z,64.79
2023-11-28T13:42:29.103Z,64.82
2023-11-28T13:44:32.770Z,65.20
2023-11-28T13:46:35.714Z,65.09
2023-11-28T13:48:38.595Z,65.08
2023-11-28T13:50:41.240Z,64.88
2023-11-28T13:52:44.329Z,64.97
2023-11-28T13:54:47.974Z,64.40
2023-11-28T13:56:50.653Z,64.48
2023-11-28T13:58:53.403Z,64.60
2023-11-28T14:00:56.401Z,64.74
2023-11-28T14:03:01.760Z,64.73
2023-11-28T14:05:05.918Z,64.52
2023-11-28T14:07:09.026Z,64.26
2023-11-28T14:09:13.576Z,64.20
2023-11-28T14:11:16.448Z,63.81
2023-11-28T14:13:20.384Z,63.66
2023-11-28T14:15:24.632Z,63.86
2023-11-28T14:17:27.722Z,64.10
2023-11-28T14:19:30.662Z,64.09
2023-11-28T14:21:35.595Z,64.08
2023-11-28T14:23:38.341Z,63.94
2023-11-28T14:25:41.104Z,64.18
2023-11-28T14:27:45.031Z,64.30
2023-11-28T14:29:48.534Z,64.49
2023-11-28T14:31:51.536Z,64.45
2023-11-28T14:33:55.261Z,64.45
2023-11-28T14:35:58.920Z,64.50
2023-11-28T14:38:01.796Z,64.21
2023-11-28T14:40:09.646Z,63.99
2023-11-28T14:42:12.648Z,64.20
2023-11-28T14:44:15.336Z,64.06
2023-11-28T14:46:18.625Z,64.37
2023-11-28T14:48:21.421Z,64.81
2023-11-28T14:50:24.160Z,64.38
2023-11-28T14:52:37.414Z,64.09
2023-11-28T14:54:41.531Z,64.43
2023-11-28T14:56:44.210Z,64.25
2023-11-28T14:58:46.816Z,64.24
2023-11-28T15:00:52.705Z,64.48
2023-11-28T15:02:59.055Z,64.78
2023-11-28T15:05:01.935Z,64.44
2023-11-28T15:07:05.738Z,64.14
2023-11-28T15:09:08.834Z,63.93
2023-11-28T15:11:16.574Z,64.28
2023-11-28T15:13:20.439Z,64.14
2023-11-28T15:15:28.423Z,64.45
2023-11-28T15:17:31.178Z,64.30
2023-11-28T15:19:34.032Z,64.33
2023-11-28T15:21:36.810Z,64.03
2023-11-28T15:23:40.027Z,63.96
2023-11-28T15:25:43.191Z,64.14
2023-11-28T15:27:46.417Z,64.37
2023-11-28T15:29:50.707Z,64.43
2023-11-28T15:31:54.460Z,64.59
2023-11-28T15:33:57.992Z,64.72
2023-11-28T15:36:00.776Z,64.90
2023-11-28T15:38:04.126Z,64.99
2023-11-28T15:40:09.575Z,65.03
2023-11-28T15:42:12.389Z,65.02
2023-11-28T15:44:15.037Z,64.94
2023-11-28T15:46:17.841Z,65.16
2023-11-28T15:48:21.662Z,65.37
2023-11-28T15:50:24.401Z,65.53
2023-11-28T15:52:27.093Z,65.68
2023-11-28T15:54:29.757Z,65.94
2023-11-28T15:56:32.772Z,65.95
2023-11-28T15:58:35.478Z,66.30
2023-11-28T16:00:38.295Z,66.76
2023-11-28T16:02:42.990Z,66.83
2023-11-28T16:04:46.098Z,67.13
2023-11-28T16:06:49.460Z,67.04
2023-11-28T16:08:52.186Z,66.93
2023-11-28T16:10:54.916Z,66.99
2023-11-28T16:12:58.446Z,67.38
2023-11-28T16:15:03.395Z,67.76
2023-11-28T16:17:06.499Z,67.54
2023-11-28T16:19:09.742Z,67.37
2023-11-28T16:21:12.994Z,67.57
2023-11-28T16:23:16.357Z,67.56
2023-11-28T16:25:19.082Z,67.67
2023-11-28T16:27:23.426Z,67.39
2023-11-28T16:29:28.641Z,67.33
2023-11-28T16:31:31.533Z,67.26
2023-11-28T16:33:39.325Z,67.41
2023-11-28T16:35:42.012Z,67.84
2023-11-28T16:37:44.661Z,68.21
2023-11-28T16:39:47.383Z,67.99
2023-11-28T16:41:51.346Z,67.91
2023-11-28T16:43:55.035Z,68.33
2023-11-28T16:45:58.287Z,68.40
2023-11-28T16:48:03.420Z,68.70
2023-11-28T16:50:08.010Z,68.34
2023-11-28T16:52:12.159Z,68.62
2023-11-28T16:54:15.046Z,68.40
2023-11-28T16:56:19.026Z,67.89
2023-11-28T16:58:23.307Z,67.81
2023-11-28T17:00:28.613Z,67.89
2023-11-28T17:02:39.179Z,67.90
2023-11-28T17:04:43.114Z,67.69
2023-11-28T17:06:48.054Z,67.90
2023-11-28T17:08:57.067Z,67.61
2023-11-28T17:11:00.301Z,67.60
2023-11-28T17:13:06.129Z,67.36
2023-11-28T17:15:09.828Z,67.37
2023-11-28T17:17:15.028Z,67.55
2023-11-28T17:19:19.984Z,67.73
2023-11-28T17:21:23.733Z,67.99
2023-11-28T17:23:27.815Z,67.74
2023-11-28T17:25:30.890Z,67.64
2023-11-28T17:27:34.712Z,67.38
2023-11-28T17:29:38.481Z,67.19
2023-11-28T17:31:41.493Z,67.50
2023-11-28T17:33:44.427Z,67.32
2023-11-28T17:35:47.230Z,67.19
2023-11-28T17:37:50.350Z,66.93
2023-11-28T17:39:53.089Z,67.01
2023-11-28T17:41:55.725Z,66.67
2023-11-28T17:43:58.560Z,66.91
2023-11-28T17:46:02.676Z,67.05
2023-11-28T17:48:05.794Z,66.82
2023-11-28T17:50:09.847Z,66.84
2023-11-28T17:52:12.588Z,66.86
2023-11-28T17:54:15.355Z,66.33
2023-11-28T17:56:19.046Z,66.37
2023-11-28T17:58:25.889Z,66.24
2023-11-28T18:00:28.592Z,66.37
2023-11-28T18:02:31.339Z,66.08
2023-11-28T18:04:41.098Z,65.80
2023-11-28T18:06:50.387Z,65.91
2023-11-28T18:08:53.282Z,65.94
2023-11-28T18:10:55.870Z,65.78
2023-11-28T18:13:03.652Z,66.03
2023-11-28T18:15:18.950Z,66.04
2023-11-28T18:17:29.652Z,66.08
2023-11-28T18:19:33.014Z,65.92
2023-11-28T18:21:36.124Z,65.92
2023-11-28T18:23:39.508Z,66.02
2023-11-28T18:25:43.225Z,66.11
2023-11-28T18:27:47.022Z,66.30
2023-11-28T18:29:50.873Z,66.20
2023-11-28T18:31:55.131Z,66.35
2023-11-28T18:33:58.589Z,66.42
2023-11-28T18:36:08.082Z,66.73
2023-11-28T18:38:11.175Z,66.77
2023-11-28T18:40:15.420Z,66.80
2023-11-28T18:42:19.421Z,66.70
2023-11-28T18:44:24.282Z,66.74
2023-11-28T18:46:27.072Z,66.92
2023-11-28T18:48:31.823Z,66.83
2023-11-28T18:50:35.678Z,66.95
2023-11-28T18:52:39.261Z,66.88
2023-11-28T18:54:42.779Z,66.71
2023-11-28T18:56:48.106Z,66.65
2023-11-28T18:58:52.552Z,66.74
2023-11-28T19:00:55.800Z,66.66
2023-11-28T19:02:59.163Z,66.76
2023-11-28T19:05:03.795Z,66.88
2023-11-28T19:07:07.998Z,66.74
2023-11-28T19:09:10.658Z,66.93
2023-11-28T19:11:16.292Z,66.98
2023-11-28T19:13:19.743Z,67.31
2023-11-28T19:15:23.794Z,67.00
2023-11-28T19:17:26.466Z,66.86
2023-11-28T19:19:33.010Z,67.04
2023-11-28T19:21:42.616Z,67.20
2023-11-28T19:23:45.283Z,67.24
2023-11-28T19:25:48.003Z,67.13
2023-11-28T19:27:51.353Z,67.05
2023-11-28T19:29:55.231Z,67.03
2023-11-28T19:32:01.417Z,67.20
2023-11-28T19:34:04.857Z,67.14
2023-11-28T19:36:08.547Z,67.05
2023-11-28T19:38:13.101Z,66.94
2023-11-28T19:40:21.575Z,66.74
2023-11-28T19:42:26.028Z,66.83
2023-11-28T19:44:28.821Z,66.51
2023-11-28T19:46:33.145Z,66.46
2023-11-28T19:48:42.357Z,66.69
2023-11-28T19:50:47.977Z,66.65
2023-11-28T19:52:53.150Z,66.86
2023-11-28T19:54:56.660Z,67.29
2023-11-28T19:56:59.743Z,66.96
2023-11-28T19:59:03.623Z,66.77
2023-11-28T20:01:08.901Z,66.49
2023-11-28T20:03:13.477Z,66.50
2023-11-28T20:05:16.938Z,66.88
2023-11-28T20:07:20.302Z,66.93
2023-11-28T20:09:23.180Z,67.30
2023-11-28T20:11:25.794Z,67.43
2023-11-28T20:13:29.384Z,67.35
2023-11-28T20:15:31.998Z,67.32
2023-11-28T20:17:38.464Z,67.21
2023-11-28T20:19:44.063Z,67.22
2023-11-28T20:21:48.769Z,66.93
2023-11-28T20:23:55.853Z,67.01
2023-11-28T20:25:59.583Z,67.10
2023-11-28T20:28:03.037Z,66.97
2023-11-28T20:30:10.619Z,67.03
2023-11-28T20:32:14.248Z,67.27
2023-11-28T20:34:20.071Z,67.20
2023-11-28T20:36:26.771Z,67.02
2023-11-28T20:38:31.334Z,66.89
2023-11-28T20:40:34.586Z,66.75
2023-11-28T20:42:38.558Z,66.69
2023-11-28T20:44:42.344Z,66.65
2023-11-28T20:46:45.778Z,66.89
2023-11-28T20:48:49.247Z,66.67
2023-11-28T20:50:52.054Z,66.85
2023-11-28T20:52:58.143Z,67.35
2023-11-28T20:55:03.300Z,67.37
2023-11-28T20:57:06.855Z,67.32
2023-11-28T20:59:10.094Z,67.29
2023-11-28T21:01:15.239Z,67.01
2023-11-28T21:03:18.655Z,67.25
2023-11-28T21:05:23.294Z,67.10
2023-11-28T21:07:28.694Z,66.72
2023-11-28T21:09:31.801Z,67.16
2023-11-28T21:11:35.311Z,66.69
2023-11-28T21:13:39.275Z,66.68
2023-11-28T21:15:42.764Z,66.60
2023-11-28T21:17:46.669Z,66.56
2023-11-28T21:19:50.586Z,66.56
2023-11-28T21:21:55.103Z,66.57
2023-11-28T21:23:57.921Z,66.66
2023-11-28T21:26:04.793Z,67.02
2023-11-28T21:28:10.895Z,67.17
2023-11-28T21:30:14.684Z,67.02
2023-11-28T21:32:18.153Z,66.84
2023-11-28T21:34:21.100Z,66.81
2023-11-28T21:36:25.832Z,67.08
2023-11-28T21:38:28.448Z,67.53
2023-11-28T21:40:31.268Z,67.79
2023-11-28T21:42:35.906Z,67.89
2023-11-28T21:44:38.946Z,67.45
2023-11-28T21:46:42.836Z,67.29
2023-11-28T21:48:46.841Z,66.97
2023-11-28T21:50:50.602Z,66.92
2023-11-28T21:52:53.445Z,66.91
2023-11-28T21:54:56.163Z,66.66
2023-11-28T21:56:59.107Z,66.52
2023-11-28T21:59:01.934Z,66.92
2023-11-28T22:01:04.913Z,66.87
2023-11-28T22:03:10.214Z,66.60
2023-11-28T22:05:13.212Z,66.87
2023-11-28T22:07:17.122Z,66.63
2023-11-28T22:09:19.912Z,66.27
2023-11-28T22:11:22.749Z,66.25
2023-11-28T22:13:26.526Z,66.66
2023-11-28T22:15:32.067Z,66.83
2023-11-28T22:17:34.852Z,66.87
2023-11-28T22:19:37.810Z,66.36
2023-11-28T22:21:40.850Z,66.24
2023-11-28T22:23:43.616Z,66.30
2023-11-28T22:25:46.892Z,66.26
2023-11-28T22:27:49.904Z,66.49
2023-11-28T22:29:52.701Z,66.51
2023-11-28T22:31:55.555Z,66.43
2023-11-28T22:33:58.774Z,66.14
2023-11-28T22:36:03.023Z,66.11
2023-11-28T22:38:05.664Z,66.01
2023-11-28T22:40:10.599Z,66.04
2023-11-28T22:42:13.348Z,66.68
2023-11-28T22:44:16.474Z,66.39
2023-11-28T22:46:19.173Z,66.33
2023-11-28T22:48:22.276Z,66.33
2023-11-28T22:50:31.111Z,66.54
2023-11-28T22:52:33.983Z,66.35
2023-11-28T22:54:36.920Z,66.27
2023-11-28T22:56:49.230Z,66.07
2023-11-28T22:58:53.912Z,66.15
2023-11-28T23:00:58.312Z,66.07
2023-11-28T23:03:01.024Z,65.95
2023-11-28T23:05:06.467Z,65.78
2023-11-28T23:07:09.329Z,65.76
2023-11-28T23:09:13.671Z,65.65
2023-11-28T23:11:17.989Z,65.47
2023-11-28T23:13:20.700Z,65.06
2023-11-28T23:15:23.524Z,65.21
2023-11-28T23:17:26.756Z,65.60
2023-11-28T23:19:29.408Z,65.80
2023-11-28T23:21:34.342Z,65.73
2023-11-28T23:23:39.981Z,65.84
2023-11-28T23:25:42.583Z,65.66
2023-11-28T23:27:45.354Z,65.66
2023-11-28T23:29:47.989Z,65.80
2023-11-28T23:31:50.636Z,65.69
2023-11-28T23:33:53.275Z,65.66
2023-11-28T23:35:59.447Z,65.80
2023-11-28T23:38:02.344Z,65.95
2023-11-28T23:40:07.016Z,66.05
2023-11-28T23:42:09.692Z,66.05
2023-11-28T23:44:12.322Z,66.12
2023-11-28T23:46:15.071Z,66.25
2023-11-28T23:48:17.837Z,66.06
2023-11-28T23:50:22.247Z,66.08
2023-11-28T23:52:25.517Z,66.19
2023-11-28T23:54:28.199Z,66.19
2023-11-28T23:56:30.997Z,66.22
2023-11-28T23:58:34.053Z,66.28
